sensor_id;sensor_type;location;lat;lon;timestamp;P1;durP1;ratioP1;P2;durP2;ratioP2
66270;SDS011;53063;39.614;8.814;2024-03-23T00:54:23;13.80;;;4.15;;
66270;SDS011;53063;39.614;8.814;2024-03-23T00:56:49;8.15;;;3.95;;
66270;SDS011;53063;39.614;8.814;2024-03-23T00:59:15;5.78;;;3.55;;
66270;SDS011;53063;39.614;8.814;2024-03-23T01:01:41;7.07;;;4.55;;
66270;SDS011;53063;39.614;8.814;2024-03-23T01:04:07;9.75;;;4.35;;
66270;SDS011;53063;39.614;8.814;2024-03-23T01:06:33;8.77;;;4.18;;
66270;SDS011;53063;39.614;8.814;2024-03-23T01:08:58;9.93;;;4.47;;
66270;SDS011;53063;39.614;8.814;2024-03-23T01:11:24;7.13;;;4.20;;
66270;SDS011;53063;39.614;8.814;2024-03-23T01:13:50;9.35;;;4.15;;
66270;SDS011;53063;39.614;8.814;2024-03-23T01:16:20;12.02;;;4.65;;
66270;SDS011;53063;39.614;8.814;2024-03-23T01:18:46;7.80;;;4.88;;
66270;SDS011;53063;39.614;8.814;2024-03-23T01:21:12;9.02;;;5.28;;
66270;SDS011;53063;39.614;8.814;2024-03-23T01:23:37;7.90;;;4.80;;
66270;SDS011;53063;39.614;8.814;2024-03-23T01:26:03;13.18;;;5.70;;
66270;SDS011;53063;39.614;8.814;2024-03-23T01:28:29;8.82;;;4.68;;
66270;SDS011;53063;39.614;8.814;2024-03-23T01:30:55;12.90;;;5.30;;
66270;SDS011;53063;39.614;8.814;2024-03-23T01:33:21;12.50;;;5.22;;
66270;SDS011;53063;39.614;8.814;2024-03-23T01:35:47;9.10;;;4.97;;
66270;SDS011;53063;39.614;8.814;2024-03-23T01:38:13;11.48;;;4.95;;
66270;SDS011;53063;39.614;8.814;2024-03-23T01:40:39;11.90;;;5.07;;
66270;SDS011;53063;39.614;8.814;2024-03-23T01:43:05;12.35;;;5.93;;
66270;SDS011;53063;39.614;8.814;2024-03-23T01:45:35;12.55;;;4.60;;
66270;SDS011;53063;39.614;8.814;2024-03-23T01:48:02;10.98;;;5.40;;
66270;SDS011;53063;39.614;8.814;2024-03-23T01:50:28;9.10;;;5.00;;
66270;SDS011;53063;39.614;8.814;2024-03-23T01:52:58;7.35;;;4.55;;
66270;SDS011;53063;39.614;8.814;2024-03-23T01:55:31;9.07;;;4.33;;
66270;SDS011;53063;39.614;8.814;2024-03-23T01:58:00;6.88;;;4.13;;
66270;SDS011;53063;39.614;8.814;2024-03-23T02:00:25;8.15;;;4.68;;
66270;SDS011;53063;39.614;8.814;2024-03-23T02:02:53;10.20;;;4.50;;
66270;SDS011;53063;39.614;8.814;2024-03-23T02:05:20;5.00;;;3.10;;
66270;SDS011;53063;39.614;8.814;2024-03-23T02:07:45;7.70;;;3.33;;
66270;SDS011;53063;39.614;8.814;2024-03-23T02:10:11;4.72;;;2.92;;
66270;SDS011;53063;39.614;8.814;2024-03-23T02:12:40;9.68;;;3.42;;
66270;SDS011;53063;39.614;8.814;2024-03-23T02:15:06;7.88;;;3.47;;
66270;SDS011;53063;39.614;8.814;2024-03-23T02:17:34;8.23;;;4.05;;
66270;SDS011;53063;39.614;8.814;2024-03-23T02:20:04;9.80;;;4.00;;
66270;SDS011;53063;39.614;8.814;2024-03-23T02:22:35;7.40;;;4.00;;
66270;SDS011;53063;39.614;8.814;2024-03-23T02:25:05;6.25;;;3.50;;
66270;SDS011;53063;39.614;8.814;2024-03-23T02:27:31;9.02;;;4.07;;
66270;SDS011;53063;39.614;8.814;2024-03-23T02:29:58;14.50;;;4.15;;
66270;SDS011;53063;39.614;8.814;2024-03-23T02:32:24;6.70;;;3.90;;
66270;SDS011;53063;39.614;8.814;2024-03-23T02:34:50;9.40;;;3.88;;
66270;SDS011;53063;39.614;8.814;2024-03-23T02:37:15;7.32;;;3.50;;
66270;SDS011;53063;39.614;8.814;2024-03-23T02:39:41;6.43;;;3.90;;
66270;SDS011;53063;39.614;8.814;2024-03-23T02:42:07;8.80;;;4.00;;
66270;SDS011;53063;39.614;8.814;2024-03-23T02:44:33;8.63;;;3.58;;
66270;SDS011;53063;39.614;8.814;2024-03-23T02:46:59;9.65;;;4.53;;
66270;SDS011;53063;39.614;8.814;2024-03-23T02:49:25;11.15;;;3.60;;
66270;SDS011;53063;39.614;8.814;2024-03-23T02:51:52;12.88;;;3.58;;
66270;SDS011;53063;39.614;8.814;2024-03-23T02:54:18;5.97;;;3.60;;
66270;SDS011;53063;39.614;8.814;2024-03-23T02:56:44;8.93;;;3.38;;
66270;SDS011;53063;39.614;8.814;2024-03-23T02:59:10;6.80;;;3.58;;
66270;SDS011;53063;39.614;8.814;2024-03-23T03:01:35;6.47;;;3.45;;
66270;SDS011;53063;39.614;8.814;2024-03-23T03:04:01;6.47;;;3.72;;
66270;SDS011;53063;39.614;8.814;2024-03-23T03:06:27;6.68;;;3.50;;
66270;SDS011;53063;39.614;8.814;2024-03-23T03:08:55;10.40;;;4.00;;
66270;SDS011;53063;39.614;8.814;2024-03-23T03:11:21;6.35;;;3.63;;
66270;SDS011;53063;39.614;8.814;2024-03-23T03:13:47;8.68;;;3.10;;
66270;SDS011;53063;39.614;8.814;2024-03-23T03:16:13;8.13;;;4.13;;
66270;SDS011;53063;39.614;8.814;2024-03-23T03:18:39;4.90;;;2.88;;
66270;SDS011;53063;39.614;8.814;2024-03-23T03:21:06;5.80;;;3.10;;
66270;SDS011;53063;39.614;8.814;2024-03-23T03:23:39;6.25;;;3.53;;
66270;SDS011;53063;39.614;8.814;2024-03-23T03:26:05;8.02;;;2.95;;
66270;SDS011;53063;39.614;8.814;2024-03-23T03:28:32;7.85;;;3.13;;
66270;SDS011;53063;39.614;8.814;2024-03-23T03:30:58;8.70;;;3.33;;
66270;SDS011;53063;39.614;8.814;2024-03-23T03:33:26;9.40;;;4.05;;
66270;SDS011;53063;39.614;8.814;2024-03-23T03:35:52;6.80;;;3.38;;
66270;SDS011;53063;39.614;8.814;2024-03-23T03:38:18;5.18;;;3.05;;
66270;SDS011;53063;39.614;8.814;2024-03-23T03:40:44;8.95;;;3.78;;
66270;SDS011;53063;39.614;8.814;2024-03-23T03:43:10;6.57;;;3.95;;
66270;SDS011;53063;39.614;8.814;2024-03-23T03:45:37;8.07;;;3.30;;
66270;SDS011;53063;39.614;8.814;2024-03-23T03:48:03;10.93;;;3.67;;
66270;SDS011;53063;39.614;8.814;2024-03-23T03:50:31;9.48;;;3.33;;
66270;SDS011;53063;39.614;8.814;2024-03-23T03:52:57;6.60;;;3.60;;
66270;SDS011;53063;39.614;8.814;2024-03-23T03:55:22;5.78;;;3.70;;
66270;SDS011;53063;39.614;8.814;2024-03-23T03:57:48;5.80;;;3.42;;
66270;SDS011;53063;39.614;8.814;2024-03-23T04:00:14;6.40;;;3.25;;
66270;SDS011;53063;39.614;8.814;2024-03-23T04:02:41;6.57;;;3.70;;
66270;SDS011;53063;39.614;8.814;2024-03-23T04:05:07;4.97;;;3.10;;
66270;SDS011;53063;39.614;8.814;2024-03-23T04:07:33;8.70;;;3.42;;
66270;SDS011;53063;39.614;8.814;2024-03-23T04:09:59;6.82;;;3.45;;
66270;SDS011;53063;39.614;8.814;2024-03-23T04:12:25;5.07;;;3.10;;
66270;SDS011;53063;39.614;8.814;2024-03-23T04:14:51;5.65;;;3.10;;
66270;SDS011;53063;39.614;8.814;2024-03-23T04:17:17;5.95;;;3.40;;
66270;SDS011;53063;39.614;8.814;2024-03-23T04:19:44;7.13;;;3.58;;
66270;SDS011;53063;39.614;8.814;2024-03-23T04:22:10;7.57;;;3.83;;
66270;SDS011;53063;39.614;8.814;2024-03-23T04:24:35;4.90;;;2.90;;
66270;SDS011;53063;39.614;8.814;2024-03-23T04:27:02;4.40;;;3.03;;
66270;SDS011;53063;39.614;8.814;2024-03-23T04:29:28;7.00;;;3.05;;
66270;SDS011;53063;39.614;8.814;2024-03-23T04:31:54;6.05;;;3.38;;
66270;SDS011;53063;39.614;8.814;2024-03-23T04:34:20;5.40;;;2.72;;
66270;SDS011;53063;39.614;8.814;2024-03-23T04:36:47;5.57;;;3.03;;
66270;SDS011;53063;39.614;8.814;2024-03-23T04:39:13;4.18;;;3.03;;
66270;SDS011;53063;39.614;8.814;2024-03-23T04:41:39;9.15;;;3.75;;
66270;SDS011;53063;39.614;8.814;2024-03-23T04:44:05;7.00;;;3.63;;
66270;SDS011;53063;39.614;8.814;2024-03-23T04:46:32;6.18;;;3.42;;
66270;SDS011;53063;39.614;8.814;2024-03-23T04:48:58;7.53;;;4.10;;
66270;SDS011;53063;39.614;8.814;2024-03-23T04:51:24;10.38;;;4.68;;
66270;SDS011;53063;39.614;8.814;2024-03-23T04:53:51;10.25;;;4.60;;
66270;SDS011;53063;39.614;8.814;2024-03-23T04:56:17;7.78;;;4.45;;
66270;SDS011;53063;39.614;8.814;2024-03-23T04:58:43;8.45;;;4.55;;
66270;SDS011;53063;39.614;8.814;2024-03-23T05:01:10;8.60;;;4.70;;
66270;SDS011;53063;39.614;8.814;2024-03-23T05:03:36;8.85;;;4.30;;
66270;SDS011;53063;39.614;8.814;2024-03-23T05:06:02;9.07;;;4.75;;
66270;SDS011;53063;39.614;8.814;2024-03-23T05:08:28;8.15;;;4.57;;
66270;SDS011;53063;39.614;8.814;2024-03-23T05:10:55;9.93;;;4.78;;
66270;SDS011;53063;39.614;8.814;2024-03-23T05:13:21;8.82;;;4.38;;
66270;SDS011;53063;39.614;8.814;2024-03-23T05:15:51;14.10;;;4.82;;
66270;SDS011;53063;39.614;8.814;2024-03-23T05:18:21;11.18;;;4.43;;
66270;SDS011;53063;39.614;8.814;2024-03-23T05:20:47;9.48;;;4.57;;
66270;SDS011;53063;39.614;8.814;2024-03-23T05:23:13;7.93;;;4.18;;
66270;SDS011;53063;39.614;8.814;2024-03-23T05:25:39;8.25;;;4.72;;
66270;SDS011;53063;39.614;8.814;2024-03-23T05:28:05;10.13;;;4.78;;
66270;SDS011;53063;39.614;8.814;2024-03-23T05:30:31;8.80;;;4.47;;
66270;SDS011;53063;39.614;8.814;2024-03-23T05:32:57;9.32;;;4.85;;
66270;SDS011;53063;39.614;8.814;2024-03-23T05:35:23;7.05;;;3.95;;
66270;SDS011;53063;39.614;8.814;2024-03-23T05:37:49;8.23;;;4.35;;
66270;SDS011;53063;39.614;8.814;2024-03-23T05:40:15;11.57;;;4.72;;
66270;SDS011;53063;39.614;8.814;2024-03-23T05:42:41;11.73;;;4.43;;
66270;SDS011;53063;39.614;8.814;2024-03-23T05:45:07;7.38;;;3.97;;
66270;SDS011;53063;39.614;8.814;2024-03-23T05:47:33;10.30;;;5.10;;
66270;SDS011;53063;39.614;8.814;2024-03-23T05:49:59;9.68;;;4.60;;
66270;SDS011;53063;39.614;8.814;2024-03-23T05:52:26;9.40;;;4.05;;
66270;SDS011;53063;39.614;8.814;2024-03-23T05:54:52;10.15;;;3.97;;
66270;SDS011;53063;39.614;8.814;2024-03-23T05:57:18;9.43;;;4.20;;
66270;SDS011;53063;39.614;8.814;2024-03-23T05:59:44;8.10;;;3.58;;
66270;SDS011;53063;39.614;8.814;2024-03-23T06:02:10;9.68;;;4.18;;
66270;SDS011;53063;39.614;8.814;2024-03-23T06:04:36;8.23;;;4.13;;
66270;SDS011;53063;39.614;8.814;2024-03-23T06:07:03;9.25;;;4.57;;
66270;SDS011;53063;39.614;8.814;2024-03-23T06:09:31;7.63;;;4.68;;
66270;SDS011;53063;39.614;8.814;2024-03-23T06:11:57;9.45;;;4.70;;
66270;SDS011;53063;39.614;8.814;2024-03-23T06:14:23;9.93;;;4.13;;
66270;SDS011;53063;39.614;8.814;2024-03-23T06:16:49;9.05;;;3.92;;
66270;SDS011;53063;39.614;8.814;2024-03-23T06:19:15;12.43;;;4.30;;
66270;SDS011;53063;39.614;8.814;2024-03-23T06:21:44;9.30;;;4.10;;
66270;SDS011;53063;39.614;8.814;2024-03-23T06:24:13;8.45;;;4.32;;
66270;SDS011;53063;39.614;8.814;2024-03-23T06:26:39;13.55;;;4.15;;
66270;SDS011;53063;39.614;8.814;2024-03-23T06:29:05;8.75;;;3.65;;
66270;SDS011;53063;39.614;8.814;2024-03-23T06:31:31;7.30;;;3.97;;
66270;SDS011;53063;39.614;8.814;2024-03-23T06:33:57;9.38;;;3.83;;
66270;SDS011;53063;39.614;8.814;2024-03-23T06:36:23;9.05;;;3.88;;
66270;SDS011;53063;39.614;8.814;2024-03-23T06:38:49;6.03;;;3.15;;
66270;SDS011;53063;39.614;8.814;2024-03-23T06:41:15;5.10;;;3.28;;
66270;SDS011;53063;39.614;8.814;2024-03-23T06:43:41;4.93;;;3.15;;
66270;SDS011;53063;39.614;8.814;2024-03-23T06:46:07;5.75;;;2.72;;
66270;SDS011;53063;39.614;8.814;2024-03-23T06:48:32;7.57;;;2.97;;
66270;SDS011;53063;39.614;8.814;2024-03-23T06:50:58;9.23;;;3.13;;
66270;SDS011;53063;39.614;8.814;2024-03-23T06:53:24;6.03;;;3.22;;
66270;SDS011;53063;39.614;8.814;2024-03-23T06:55:53;4.35;;;3.05;;
66270;SDS011;53063;39.614;8.814;2024-03-23T06:58:20;5.35;;;2.50;;
66270;SDS011;53063;39.614;8.814;2024-03-23T07:00:49;5.60;;;2.55;;
66270;SDS011;53063;39.614;8.814;2024-03-23T07:03:19;5.38;;;2.63;;
66270;SDS011;53063;39.614;8.814;2024-03-23T07:05:46;6.90;;;2.85;;
66270;SDS011;53063;39.614;8.814;2024-03-23T07:08:12;3.45;;;2.22;;
66270;SDS011;53063;39.614;8.814;2024-03-23T07:10:41;5.03;;;2.15;;
66270;SDS011;53063;39.614;8.814;2024-03-23T07:13:07;5.78;;;2.58;;
66270;SDS011;53063;39.614;8.814;2024-03-23T07:15:33;3.72;;;1.92;;
66270;SDS011;53063;39.614;8.814;2024-03-23T07:17:59;5.95;;;2.95;;
66270;SDS011;53063;39.614;8.814;2024-03-23T07:20:25;3.92;;;2.15;;
66270;SDS011;53063;39.614;8.814;2024-03-23T07:22:51;7.60;;;2.35;;
66270;SDS011;53063;39.614;8.814;2024-03-23T07:25:17;3.58;;;1.77;;
66270;SDS011;53063;39.614;8.814;2024-03-23T07:27:43;4.97;;;2.47;;
66270;SDS011;53063;39.614;8.814;2024-03-23T07:30:09;3.22;;;1.90;;
66270;SDS011;53063;39.614;8.814;2024-03-23T07:32:35;5.28;;;2.10;;
66270;SDS011;53063;39.614;8.814;2024-03-23T07:35:01;5.35;;;2.22;;
66270;SDS011;53063;39.614;8.814;2024-03-23T07:37:28;5.85;;;2.33;;
66270;SDS011;53063;39.614;8.814;2024-03-23T07:39:54;9.60;;;2.63;;
66270;SDS011;53063;39.614;8.814;2024-03-23T07:42:20;4.88;;;2.15;;
66270;SDS011;53063;39.614;8.814;2024-03-23T07:44:46;3.25;;;1.70;;
66270;SDS011;53063;39.614;8.814;2024-03-23T07:47:12;2.25;;;1.60;;
66270;SDS011;53063;39.614;8.814;2024-03-23T07:49:38;3.83;;;2.15;;
66270;SDS011;53063;39.614;8.814;2024-03-23T07:52:05;7.38;;;2.15;;
66270;SDS011;53063;39.614;8.814;2024-03-23T07:54:31;3.75;;;1.85;;
66270;SDS011;53063;39.614;8.814;2024-03-23T07:56:57;6.00;;;1.85;;
66270;SDS011;53063;39.614;8.814;2024-03-23T07:59:23;4.18;;;2.45;;
66270;SDS011;53063;39.614;8.814;2024-03-23T08:01:49;4.00;;;2.13;;
66270;SDS011;53063;39.614;8.814;2024-03-23T08:04:14;3.95;;;1.95;;
66270;SDS011;53063;39.614;8.814;2024-03-23T08:06:40;5.22;;;2.22;;
66270;SDS011;53063;39.614;8.814;2024-03-23T08:09:06;4.05;;;2.17;;
66270;SDS011;53063;39.614;8.814;2024-03-23T08:11:32;3.95;;;2.40;;
66270;SDS011;53063;39.614;8.814;2024-03-23T08:13:59;5.03;;;2.45;;
66270;SDS011;53063;39.614;8.814;2024-03-23T08:16:26;4.32;;;2.78;;
66270;SDS011;53063;39.614;8.814;2024-03-23T08:18:53;4.70;;;2.50;;
66270;SDS011;53063;39.614;8.814;2024-03-23T08:21:22;4.72;;;2.65;;
66270;SDS011;53063;39.614;8.814;2024-03-23T08:23:48;5.38;;;2.67;;
66270;SDS011;53063;39.614;8.814;2024-03-23T08:26:15;6.05;;;2.83;;
66270;SDS011;53063;39.614;8.814;2024-03-23T08:28:43;9.52;;;3.25;;
66270;SDS011;53063;39.614;8.814;2024-03-23T08:31:12;7.28;;;3.42;;
66270;SDS011;53063;39.614;8.814;2024-03-23T08:33:39;6.82;;;2.88;;
66270;SDS011;53063;39.614;8.814;2024-03-23T08:36:08;9.25;;;2.92;;
66270;SDS011;53063;39.614;8.814;2024-03-23T08:38:35;9.43;;;3.30;;
66270;SDS011;53063;39.614;8.814;2024-03-23T08:41:01;4.40;;;2.70;;
66270;SDS011;53063;39.614;8.814;2024-03-23T08:43:28;6.93;;;2.80;;
66270;SDS011;53063;39.614;8.814;2024-03-23T08:46:04;3.45;;;2.22;;
66270;SDS011;53063;39.614;8.814;2024-03-23T08:48:36;4.05;;;2.17;;
66270;SDS011;53063;39.614;8.814;2024-03-23T08:51:04;6.32;;;2.85;;
66270;SDS011;53063;39.614;8.814;2024-03-23T08:53:36;5.60;;;3.25;;
66270;SDS011;53063;39.614;8.814;2024-03-23T08:56:03;3.70;;;1.98;;
66270;SDS011;53063;39.614;8.814;2024-03-23T08:58:29;4.85;;;2.35;;
66270;SDS011;53063;39.614;8.814;2024-03-23T09:00:57;4.15;;;2.38;;
66270;SDS011;53063;39.614;8.814;2024-03-23T09:03:33;5.45;;;2.17;;
66270;SDS011;53063;39.614;8.814;2024-03-23T09:06:00;4.55;;;2.10;;
66270;SDS011;53063;39.614;8.814;2024-03-23T09:08:27;4.78;;;2.33;;
66270;SDS011;53063;39.614;8.814;2024-03-23T09:10:53;4.18;;;2.40;;
66270;SDS011;53063;39.614;8.814;2024-03-23T09:13:19;3.13;;;1.67;;
66270;SDS011;53063;39.614;8.814;2024-03-23T09:15:46;7.50;;;2.03;;
66270;SDS011;53063;39.614;8.814;2024-03-23T09:18:13;5.22;;;2.03;;
66270;SDS011;53063;39.614;8.814;2024-03-23T09:20:38;4.32;;;1.92;;
66270;SDS011;53063;39.614;8.814;2024-03-23T09:23:04;4.32;;;2.10;;
66270;SDS011;53063;39.614;8.814;2024-03-23T09:25:30;5.53;;;2.10;;
66270;SDS011;53063;39.614;8.814;2024-03-23T09:27:57;3.88;;;1.73;;
66270;SDS011;53063;39.614;8.814;2024-03-23T09:30:23;5.38;;;1.90;;
66270;SDS011;53063;39.614;8.814;2024-03-23T09:32:49;3.00;;;2.22;;
66270;SDS011;53063;39.614;8.814;2024-03-23T09:35:15;4.28;;;1.85;;
66270;SDS011;53063;39.614;8.814;2024-03-23T09:37:41;3.72;;;2.10;;
66270;SDS011;53063;39.614;8.814;2024-03-23T09:40:10;4.65;;;2.15;;
66270;SDS011;53063;39.614;8.814;2024-03-23T09:42:37;3.60;;;2.28;;
66270;SDS011;53063;39.614;8.814;2024-03-23T09:45:06;3.78;;;1.95;;
66270;SDS011;53063;39.614;8.814;2024-03-23T09:47:42;5.18;;;2.10;;
66270;SDS011;53063;39.614;8.814;2024-03-23T09:50:09;4.72;;;2.47;;
66270;SDS011;53063;39.614;8.814;2024-03-23T09:52:35;4.95;;;2.85;;
66270;SDS011;53063;39.614;8.814;2024-03-23T09:55:01;3.80;;;2.53;;
66270;SDS011;53063;39.614;8.814;2024-03-23T09:57:28;3.90;;;2.67;;
66270;SDS011;53063;39.614;8.814;2024-03-23T09:59:54;3.92;;;2.80;;
66270;SDS011;53063;39.614;8.814;2024-03-23T10:02:22;4.45;;;2.38;;
66270;SDS011;53063;39.614;8.814;2024-03-23T10:04:49;4.18;;;2.45;;
66270;SDS011;53063;39.614;8.814;2024-03-23T10:07:17;4.00;;;2.25;;
66270;SDS011;53063;39.614;8.814;2024-03-23T10:09:44;7.43;;;2.70;;
66270;SDS011;53063;39.614;8.814;2024-03-23T10:12:11;4.68;;;2.60;;
66270;SDS011;53063;39.614;8.814;2024-03-23T10:14:42;4.43;;;2.30;;
66270;SDS011;53063;39.614;8.814;2024-03-23T10:17:15;4.65;;;2.20;;
66270;SDS011;53063;39.614;8.814;2024-03-23T10:19:51;4.90;;;2.40;;
66270;SDS011;53063;39.614;8.814;2024-03-23T10:22:21;4.78;;;2.33;;
66270;SDS011;53063;39.614;8.814;2024-03-23T10:24:49;5.13;;;2.50;;
66270;SDS011;53063;39.614;8.814;2024-03-23T10:27:16;4.43;;;2.90;;
66270;SDS011;53063;39.614;8.814;2024-03-23T10:29:45;6.80;;;2.67;;
66270;SDS011;53063;39.614;8.814;2024-03-23T10:32:16;7.13;;;2.38;;
66270;SDS011;53063;39.614;8.814;2024-03-23T10:34:43;5.22;;;2.50;;
66270;SDS011;53063;39.614;8.814;2024-03-23T10:37:09;8.90;;;2.47;;
66270;SDS011;53063;39.614;8.814;2024-03-23T10:42:06;5.43;;;2.17;;
66270;SDS011;53063;39.614;8.814;2024-03-23T10:44:33;3.08;;;1.98;;
66270;SDS011;53063;39.614;8.814;2024-03-23T10:47:03;4.35;;;2.25;;
66270;SDS011;53063;39.614;8.814;2024-03-23T10:49:31;7.18;;;2.85;;
66270;SDS011;53063;39.614;8.814;2024-03-23T10:51:58;5.38;;;2.88;;
66270;SDS011;53063;39.614;8.814;2024-03-23T10:54:25;3.33;;;2.30;;
66270;SDS011;53063;39.614;8.814;2024-03-23T10:56:59;2.33;;;1.90;;
66270;SDS011;53063;39.614;8.814;2024-03-23T10:59:27;3.00;;;1.80;;
66270;SDS011;53063;39.614;8.814;2024-03-23T11:01:59;1.92;;;1.50;;
66270;SDS011;53063;39.614;8.814;2024-03-23T11:06:57;3.45;;;1.80;;
66270;SDS011;53063;39.614;8.814;2024-03-23T11:09:39;1.90;;;1.40;;
66270;SDS011;53063;39.614;8.814;2024-03-23T11:15:00;3.42;;;1.70;;
66270;SDS011;53063;39.614;8.814;2024-03-23T11:17:30;4.07;;;1.35;;
66270;SDS011;53063;39.614;8.814;2024-03-23T11:19:59;6.05;;;1.77;;
66270;SDS011;53063;39.614;8.814;2024-03-23T11:25:22;3.90;;;1.77;;
66270;SDS011;53063;39.614;8.814;2024-03-23T11:27:50;4.13;;;2.53;;
66270;SDS011;53063;39.614;8.814;2024-03-23T11:30:17;4.05;;;1.90;;
66270;SDS011;53063;39.614;8.814;2024-03-23T11:32:45;2.28;;;1.60;;
66270;SDS011;53063;39.614;8.814;2024-03-23T11:35:27;5.32;;;1.45;;
66270;SDS011;53063;39.614;8.814;2024-03-23T11:38:01;5.68;;;1.50;;
66270;SDS011;53063;39.614;8.814;2024-03-23T11:40:27;2.33;;;1.35;;
66270;SDS011;53063;39.614;8.814;2024-03-23T11:42:56;5.15;;;1.60;;
66270;SDS011;53063;39.614;8.814;2024-03-23T11:45:25;2.00;;;1.40;;
66270;SDS011;53063;39.614;8.814;2024-03-23T11:50:35;3.22;;;1.60;;
66270;SDS011;53063;39.614;8.814;2024-03-23T11:53:18;5.30;;;1.70;;
66270;SDS011;53063;39.614;8.814;2024-03-23T11:55:49;2.85;;;1.75;;
66270;SDS011;53063;39.614;8.814;2024-03-23T11:58:21;4.35;;;2.10;;
66270;SDS011;53063;39.614;8.814;2024-03-23T12:00:51;3.10;;;1.40;;
66270;SDS011;53063;39.614;8.814;2024-03-23T12:03:18;2.83;;;1.50;;
66270;SDS011;53063;39.614;8.814;2024-03-23T12:05:50;6.20;;;1.80;;
66270;SDS011;53063;39.614;8.814;2024-03-23T12:10:46;3.40;;;1.63;;
66270;SDS011;53063;39.614;8.814;2024-03-23T12:13:17;7.40;;;2.15;;
66270;SDS011;53063;39.614;8.814;2024-03-23T12:15:44;5.88;;;1.80;;
66270;SDS011;53063;39.614;8.814;2024-03-23T12:18:15;6.53;;;1.70;;
66270;SDS011;53063;39.614;8.814;2024-03-23T12:20:41;3.30;;;1.60;;
66270;SDS011;53063;39.614;8.814;2024-03-23T12:23:08;4.60;;;1.73;;
66270;SDS011;53063;39.614;8.814;2024-03-23T12:25:40;4.00;;;1.73;;
66270;SDS011;53063;39.614;8.814;2024-03-23T12:28:07;4.90;;;1.85;;
66270;SDS011;53063;39.614;8.814;2024-03-23T12:30:33;2.40;;;1.67;;
66270;SDS011;53063;39.614;8.814;2024-03-23T12:33:00;3.33;;;1.80;;
66270;SDS011;53063;39.614;8.814;2024-03-23T12:35:26;3.03;;;1.67;;
66270;SDS011;53063;39.614;8.814;2024-03-23T12:37:52;4.65;;;2.17;;
66270;SDS011;53063;39.614;8.814;2024-03-23T12:40:18;2.95;;;1.67;;
66270;SDS011;53063;39.614;8.814;2024-03-23T12:42:44;3.42;;;1.73;;
66270;SDS011;53063;39.614;8.814;2024-03-23T12:45:10;2.38;;;1.83;;
66270;SDS011;53063;39.614;8.814;2024-03-23T12:47:36;3.25;;;1.60;;
66270;SDS011;53063;39.614;8.814;2024-03-23T12:50:02;5.95;;;2.03;;
66270;SDS011;53063;39.614;8.814;2024-03-23T12:52:28;7.00;;;2.00;;
66270;SDS011;53063;39.614;8.814;2024-03-23T12:54:55;2.40;;;1.60;;
66270;SDS011;53063;39.614;8.814;2024-03-23T12:57:22;3.42;;;1.73;;
66270;SDS011;53063;39.614;8.814;2024-03-23T12:59:49;3.60;;;1.70;;
66270;SDS011;53063;39.614;8.814;2024-03-23T13:02:19;3.75;;;1.63;;
66270;SDS011;53063;39.614;8.814;2024-03-23T13:04:46;3.95;;;2.03;;
66270;SDS011;53063;39.614;8.814;2024-03-23T13:07:15;2.83;;;1.70;;
66270;SDS011;53063;39.614;8.814;2024-03-23T13:09:41;2.67;;;1.80;;
66270;SDS011;53063;39.614;8.814;2024-03-23T13:12:07;2.70;;;1.70;;
66270;SDS011;53063;39.614;8.814;2024-03-23T13:14:34;4.43;;;1.52;;
66270;SDS011;53063;39.614;8.814;2024-03-23T13:17:00;6.70;;;1.73;;
66270;SDS011;53063;39.614;8.814;2024-03-23T13:19:27;3.40;;;1.80;;
66270;SDS011;53063;39.614;8.814;2024-03-23T13:21:56;3.17;;;1.45;;
66270;SDS011;53063;39.614;8.814;2024-03-23T13:24:23;2.35;;;1.48;;
66270;SDS011;53063;39.614;8.814;2024-03-23T13:26:53;3.58;;;2.00;;
66270;SDS011;53063;39.614;8.814;2024-03-23T13:29:19;2.90;;;1.50;;
66270;SDS011;53063;39.614;8.814;2024-03-23T13:31:46;4.13;;;1.75;;
66270;SDS011;53063;39.614;8.814;2024-03-23T13:34:12;6.15;;;1.83;;
66270;SDS011;53063;39.614;8.814;2024-03-23T13:36:40;5.10;;;1.67;;
66270;SDS011;53063;39.614;8.814;2024-03-23T13:39:07;4.35;;;1.40;;
66270;SDS011;53063;39.614;8.814;2024-03-23T13:41:40;2.72;;;1.90;;
66270;SDS011;53063;39.614;8.814;2024-03-23T13:44:07;3.75;;;2.10;;
66270;SDS011;53063;39.614;8.814;2024-03-23T13:46:35;2.10;;;1.70;;
66270;SDS011;53063;39.614;8.814;2024-03-23T13:49:02;2.78;;;1.52;;
66270;SDS011;53063;39.614;8.814;2024-03-23T13:51:28;2.97;;;1.60;;
66270;SDS011;53063;39.614;8.814;2024-03-23T13:53:55;5.80;;;2.15;;
66270;SDS011;53063;39.614;8.814;2024-03-23T13:56:30;4.32;;;1.98;;
66270;SDS011;53063;39.614;8.814;2024-03-23T13:58:56;2.58;;;1.67;;
66270;SDS011;53063;39.614;8.814;2024-03-23T14:01:23;3.78;;;1.67;;
66270;SDS011;53063;39.614;8.814;2024-03-23T14:03:49;3.80;;;1.75;;
66270;SDS011;53063;39.614;8.814;2024-03-23T14:06:15;5.85;;;1.70;;
66270;SDS011;53063;39.614;8.814;2024-03-23T14:08:41;5.82;;;1.83;;
66270;SDS011;53063;39.614;8.814;2024-03-23T14:11:08;1.98;;;1.60;;
66270;SDS011;53063;39.614;8.814;2024-03-23T14:13:35;4.50;;;1.50;;
66270;SDS011;53063;39.614;8.814;2024-03-23T14:16:02;7.22;;;2.15;;
66270;SDS011;53063;39.614;8.814;2024-03-23T14:18:28;4.60;;;1.52;;
66270;SDS011;53063;39.614;8.814;2024-03-23T14:20:58;4.95;;;1.75;;
66270;SDS011;53063;39.614;8.814;2024-03-23T14:23:25;6.97;;;1.90;;
66270;SDS011;53063;39.614;8.814;2024-03-23T14:25:52;3.17;;;1.77;;
66270;SDS011;53063;39.614;8.814;2024-03-23T14:28:19;4.75;;;2.63;;
66270;SDS011;53063;39.614;8.814;2024-03-23T14:30:47;3.53;;;1.83;;
66270;SDS011;53063;39.614;8.814;2024-03-23T14:33:13;3.40;;;2.05;;
66270;SDS011;53063;39.614;8.814;2024-03-23T14:35:39;3.88;;;2.00;;
66270;SDS011;53063;39.614;8.814;2024-03-23T14:38:05;2.38;;;1.80;;
66270;SDS011;53063;39.614;8.814;2024-03-23T14:40:31;3.60;;;2.00;;
66270;SDS011;53063;39.614;8.814;2024-03-23T14:42:57;4.65;;;1.75;;
66270;SDS011;53063;39.614;8.814;2024-03-23T14:45:22;4.40;;;2.03;;
66270;SDS011;53063;39.614;8.814;2024-03-23T14:47:52;6.07;;;2.00;;
66270;SDS011;53063;39.614;8.814;2024-03-23T14:50:19;3.35;;;2.15;;
66270;SDS011;53063;39.614;8.814;2024-03-23T14:52:46;4.45;;;2.22;;
66270;SDS011;53063;39.614;8.814;2024-03-23T14:55:13;3.75;;;2.08;;
66270;SDS011;53063;39.614;8.814;2024-03-23T14:57:39;3.63;;;2.20;;
66270;SDS011;53063;39.614;8.814;2024-03-23T15:00:06;6.82;;;2.00;;
66270;SDS011;53063;39.614;8.814;2024-03-23T15:02:35;5.07;;;2.30;;
66270;SDS011;53063;39.614;8.814;2024-03-23T15:05:05;2.47;;;1.90;;
66270;SDS011;53063;39.614;8.814;2024-03-23T15:07:37;5.35;;;2.15;;
66270;SDS011;53063;39.614;8.814;2024-03-23T15:10:05;5.65;;;2.60;;
66270;SDS011;53063;39.614;8.814;2024-03-23T15:12:32;4.75;;;2.05;;
66270;SDS011;53063;39.614;8.814;2024-03-23T15:15:01;6.32;;;2.38;;
66270;SDS011;53063;39.614;8.814;2024-03-23T15:17:27;5.20;;;2.60;;
66270;SDS011;53063;39.614;8.814;2024-03-23T15:19:53;3.10;;;1.60;;
66270;SDS011;53063;39.614;8.814;2024-03-23T15:22:19;2.85;;;1.80;;
66270;SDS011;53063;39.614;8.814;2024-03-23T15:24:47;5.57;;;2.15;;
66270;SDS011;53063;39.614;8.814;2024-03-23T15:27:13;4.03;;;1.95;;
66270;SDS011;53063;39.614;8.814;2024-03-23T15:29:40;3.03;;;1.83;;
66270;SDS011;53063;39.614;8.814;2024-03-23T15:32:10;2.83;;;1.80;;
66270;SDS011;53063;39.614;8.814;2024-03-23T15:34:36;3.67;;;1.88;;
66270;SDS011;53063;39.614;8.814;2024-03-23T15:37:02;4.78;;;2.10;;
66270;SDS011;53063;39.614;8.814;2024-03-23T15:39:29;2.83;;;1.92;;
66270;SDS011;53063;39.614;8.814;2024-03-23T15:41:55;3.72;;;2.33;;
66270;SDS011;53063;39.614;8.814;2024-03-23T15:44:21;3.50;;;2.50;;
66270;SDS011;53063;39.614;8.814;2024-03-23T15:46:47;5.93;;;2.40;;
66270;SDS011;53063;39.614;8.814;2024-03-23T15:49:13;5.30;;;2.33;;
66270;SDS011;53063;39.614;8.814;2024-03-23T15:51:39;4.55;;;2.38;;
66270;SDS011;53063;39.614;8.814;2024-03-23T15:54:07;3.83;;;1.85;;